createdAt,value
2023-04-02T00:02:25.660Z,99632.55
2023-04-02T00:05:27.292Z,99640.23
2023-04-02T00:08:03.550Z,99643.08
2023-04-02T00:11:19.686Z,99642.91
2023-04-02T00:13:55.165Z,99647.95
2023-04-02T00:16:29.838Z,99648.98
2023-04-02T00:19:39.541Z,99652.80
2023-04-02T00:22:45.704Z,99655.39
2023-04-02T00:25:21.477Z,99655.88
2023-04-02T00:27:57.826Z,99658.54
2023-04-02T00:30:35.959Z,99656.18
2023-04-02T00:33:17.191Z,99661.80
2023-04-02T00:35:55.895Z,99661.23
2023-04-02T00:38:34.379Z,99663.43
2023-04-02T00:41:17.056Z,99663.64
2023-04-02T00:44:06.601Z,99667.13
2023-04-02T00:46:52.688Z,99667.91
2023-04-02T00:49:27.908Z,99672.01
2023-04-02T00:52:07.032Z,99670.33
2023-04-02T00:55:23.705Z,99675.76
2023-04-02T00:58:09.646Z,99679.06
2023-04-02T01:00:41.219Z,99678.21
2023-04-02T01:03:38.981Z,99681.02
2023-04-02T01:06:20.278Z,99682.85
2023-04-02T01:09:55.074Z,99682.21
2023-04-02T01:13:35.753Z,99686.84
2023-04-02T01:20:25.217Z,99696.27
2023-04-02T01:23:23.865Z,99697.98
2023-04-02T01:26:19.415Z,99701.48
2023-04-02T01:29:18.720Z,99706.45
2023-04-02T01:31:55.943Z,99707.58
2023-04-02T01:34:33.003Z,99710.93
2023-04-02T01:37:18.491Z,99714.98
2023-04-02T01:40:18.081Z,99719.37
2023-04-02T01:43:02.228Z,99721.86
2023-04-02T01:45:35.797Z,99726.26
2023-04-02T01:48:25.149Z,99729.07
2023-04-02T01:51:04.772Z,99732.75
2023-04-02T01:53:37.512Z,99733.81
2023-04-02T01:56:17.750Z,99735.57
2023-04-02T01:58:53.745Z,99737.31
2023-04-02T02:01:54.544Z,99740.19
2023-04-02T02:04:27.993Z,99744.30
2023-04-02T02:07:01.820Z,99743.80
2023-04-02T02:09:36.258Z,99744.13
2023-04-02T02:12:07.112Z,99747.59
2023-04-02T02:14:52.517Z,99743.08
2023-04-02T02:17:35.254Z,99748.63
2023-04-02T02:20:28.663Z,99753.10
2023-04-02T02:23:00.779Z,99757.48
2023-04-02T02:25:39.851Z,99760.62
2023-04-02T02:28:40.712Z,99765.19
2023-04-02T02:31:28.587Z,99766.09
2023-04-02T02:34:21.564Z,99765.25
2023-04-02T02:37:06.533Z,99767.98
2023-04-02T02:39:44.461Z,99770.73
2023-04-02T02:42:40.015Z,99775.27
2023-04-02T02:45:27.509Z,99778.88
2023-04-02T02:48:04.815Z,99783.66
2023-04-02T02:50:37.601Z,99788.79
2023-04-02T02:53:27.309Z,99788.23
2023-04-02T02:56:05.327Z,99789.59
2023-04-02T02:58:43.551Z,99793.02
2023-04-02T03:01:27.387Z,99792.17
2023-04-02T03:04:06.453Z,99796.70
2023-04-02T03:06:42.595Z,99800.97
2023-04-02T03:09:46.266Z,99807.31
2023-04-02T03:13:20.667Z,99807.18
2023-04-02T03:16:36.929Z,99810.83
2023-04-02T03:19:47.271Z,99818.05
2023-04-02T03:23:17.877Z,99817.14
2023-04-02T03:26:08.597Z,99814.91
2023-04-02T03:29:10.575Z,99820.75
2023-04-02T03:32:06.077Z,99829.06
2023-04-02T03:34:45.781Z,99830.29
2023-04-02T03:37:39.646Z,99834.80
2023-04-02T03:40:47.747Z,99838.34
2023-04-02T03:43:29.980Z,99845.97
2023-04-02T03:46:36.091Z,99849.77
2023-04-02T03:49:39.852Z,99853.50
2023-04-02T03:52:28.862Z,99858.98
2023-04-02T03:55:18.912Z,99864.48
2023-04-02T03:58:11.937Z,99870.20
2023-04-02T04:01:26.598Z,99874.63
2023-04-02T04:04:11.355Z,99879.10
2023-04-02T04:06:55.302Z,99882.50
2023-04-02T04:09:38.073Z,99885.36
2023-04-02T04:12:41.564Z,99891.39
2023-04-02T04:15:35.096Z,99894.19
2023-04-02T04:18:40.395Z,99899.70
2023-04-02T04:21:50.759Z,99902.98
2023-04-02T04:24:30.757Z,99910.95
2023-04-02T04:27:19.014Z,99916.79
2023-04-02T04:30:14.846Z,99921.08
2023-04-02T04:33:11.231Z,99931.52
2023-04-02T04:35:56.190Z,99936.82
2023-04-02T04:38:37.101Z,99939.55
2023-04-02T04:41:30.758Z,99940.86
2023-04-02T04:44:41.211Z,99949.61
2023-04-02T04:47:35.058Z,99952.75
2023-04-02T04:50:36.483Z,99951.92
2023-04-02T04:53:23.064Z,99956.04
2023-04-02T04:56:16.556Z,99959.29
2023-04-02T04:59:24.555Z,99965.33
2023-04-02T05:02:23.504Z,99970.48
2023-04-02T05:05:01.532Z,99979.30
2023-04-02T05:08:05.728Z,99983.75
2023-04-02T05:10:58.890Z,99984.56
2023-04-02T05:13:47.625Z,99986.77
2023-04-02T05:17:01.475Z,99992.80
2023-04-02T05:20:02.415Z,99996.70
2023-04-02T05:26:21.449Z,100004.88
2023-04-02T05:28:57.525Z,100008.90
2023-04-02T05:31:46.747Z,100014.73
2023-04-02T05:34:33.020Z,100018.54
2023-04-02T05:37:26.971Z,100022.04
2023-04-02T05:40:08.549Z,100023.92
2023-04-02T05:42:43.071Z,100024.23
2023-04-02T05:45:16.963Z,100027.11
2023-04-02T05:47:54.467Z,100030.40
2023-04-02T05:50:49.382Z,100034.48
2023-04-02T05:54:09.776Z,100035.39
2023-04-02T05:56:53.582Z,100039.46
2023-04-02T05:59:38.842Z,100040.61
2023-04-02T06:02:43.552Z,100042.11
2023-04-02T06:05:26.700Z,100047.30
2023-04-02T06:08:13.184Z,100056.73
2023-04-02T06:11:08.358Z,100056.90
2023-04-02T06:13:45.093Z,100059.98
2023-04-02T06:16:35.476Z,100057.91
2023-04-02T06:19:23.601Z,100064.11
2023-04-02T06:22:11.291Z,100071.19
2023-04-02T06:25:01.068Z,100072.74
2023-04-02T06:27:36.082Z,100086.45
2023-04-02T06:30:29.559Z,100089.03
2023-04-02T06:33:19.327Z,100094.88
2023-04-02T06:35:53.348Z,100098.17
2023-04-02T06:38:47.095Z,100106.35
2023-04-02T06:41:27.638Z,100107.88
2023-04-02T06:44:30.343Z,100114.38
2023-04-02T06:47:48.868Z,100115.71
2023-04-02T06:51:13.948Z,100124.07
2023-04-02T06:53:59.569Z,100129.30
2023-04-02T06:56:51.001Z,100132.09
2023-04-02T06:59:28.365Z,100135.73
2023-04-02T07:02:19.220Z,100141.41
2023-04-02T07:05:09.507Z,100143.84
2023-04-02T07:07:57.163Z,100147.63
2023-04-02T07:10:51.980Z,100153.97
2023-04-02T07:13:43.598Z,100158.90
2023-04-02T07:16:25.623Z,100166.14
2023-04-02T07:19:36.646Z,100170.23
2023-04-02T07:22:23.919Z,100171.77
2023-04-02T07:28:06.774Z,100178.65
2023-04-02T07:30:45.351Z,100177.41
2023-04-02T07:33:26.823Z,100182.72
2023-04-02T07:36:07.466Z,100189.95
2023-04-02T07:38:44.330Z,100196.66
2023-04-02T07:41:26.832Z,100200.25
2023-04-02T07:43:57.328Z,100200.16
2023-04-02T07:46:31.940Z,100199.43
2023-04-02T07:49:04.433Z,100204.55
2023-04-02T07:54:37.350Z,100212.00
2023-04-02T07:57:28.456Z,100217.95
2023-04-02T08:00:01.662Z,100220.89
2023-04-02T08:02:35.330Z,100226.71
2023-04-02T08:05:34.351Z,100231.35
2023-04-02T08:08:09.078Z,100239.20
2023-04-02T08:10:41.353Z,100240.46
2023-04-02T08:13:21.082Z,100243.48
2023-04-02T08:16:05.463Z,100245.67
2023-04-02T08:18:40.910Z,100248.93
2023-04-02T08:21:36.192Z,100249.24
2023-04-02T08:24:09.497Z,100249.88
2023-04-02T08:26:42.268Z,100253.63
2023-04-02T08:29:13.356Z,100254.14
2023-04-02T08:31:54.312Z,100254.25
2023-04-02T08:34:52.603Z,100261.68
2023-04-02T08:37:36.213Z,100264.12
2023-04-02T08:40:22.697Z,100265.55
2023-04-02T08:44:39.980Z,100265.66
2023-04-02T08:47:09.681Z,100269.56
2023-04-02T08:49:59.305Z,100278.73
2023-04-02T08:52:41.502Z,100281.31
2023-04-02T08:55:34.759Z,100281.23
2023-04-02T08:58:45.863Z,100284.89
2023-04-02T09:01:52.234Z,100287.94
2023-04-02T09:04:27.717Z,100292.13
2023-04-02T09:07:04.874Z,100299.63
2023-04-02T09:09:39.193Z,100300.58
2023-04-02T09:12:34.603Z,100302.61
2023-04-02T09:15:35.293Z,100304.21
2023-04-02T09:18:21.304Z,100311.81
2023-04-02T09:20:58.004Z,100312.71
2023-04-02T09:23:29.321Z,100319.80
2023-04-02T09:26:04.885Z,100324.83
2023-04-02T09:28:56.615Z,100335.01
2023-04-02T09:31:50.454Z,100337.14
2023-04-02T09:34:35.242Z,100345.65
2023-04-02T09:37:25.807Z,100352.41
2023-04-02T09:40:32.967Z,100354.40
2023-04-02T09:43:33.356Z,100356.86
2023-04-02T09:46:40.761Z,100364.39
2023-04-02T09:49:42.277Z,100366.54
2023-04-02T09:52:30.072Z,100371.45
2023-04-02T09:55:16.302Z,100368.00
2023-04-02T09:57:52.386Z,100371.11
2023-04-02T10:00:32.881Z,100374.96
2023-04-02T10:03:18.790Z,100377.38
2023-04-02T10:06:08.115Z,100383.23
2023-04-02T10:09:03.066Z,100387.44
2023-04-02T10:11:45.874Z,100391.98
2023-04-02T10:14:26.383Z,100393.02
2023-04-02T10:17:42.882Z,100394.70
2023-04-02T10:20:48.603Z,100402.59
2023-04-02T10:24:02.984Z,100403.83
2023-04-02T10:27:21.936Z,100409.09
2023-04-02T10:30:21.494Z,100414.29
2023-04-02T10:33:34.255Z,100418.16
2023-04-02T10:37:04.283Z,100419.86
2023-04-02T10:40:50.783Z,100419.47
2023-04-02T10:43:47.589Z,100425.92
2023-04-02T10:47:32.336Z,100424.50
2023-04-02T10:51:25.354Z,100432.30
2023-04-02T10:54:39.456Z,100433.40
2023-04-02T10:57:41.124Z,100436.67
2023-04-02T11:01:04.728Z,100442.52
2023-04-02T11:04:20.489Z,100443.96
2023-04-02T11:07:14.796Z,100447.64
2023-04-02T11:09:55.147Z,100450.42
2023-04-02T11:12:50.841Z,100452.29
2023-04-02T11:15:54.509Z,100457.27
2023-04-02T11:18:39.560Z,100462.13
2023-04-02T11:21:58.139Z,100468.48
2023-04-02T11:24:52.609Z,100473.16
2023-04-02T11:27:44.808Z,100474.03
2023-04-02T11:30:28.902Z,100481.16
2023-04-02T11:33:45.579Z,100484.05
2023-04-02T11:36:55.308Z,100487.05
2023-04-02T11:40:04.143Z,100491.27
2023-04-02T11:42:47.476Z,100493.02
2023-04-02T11:45:24.333Z,100497.02
2023-04-02T11:48:02.550Z,100498.15
2023-04-02T11:50:46.280Z,100503.22
2023-04-02T11:53:33.598Z,100505.55
2023-04-02T11:56:55.706Z,100511.48
2023-04-02T12:00:01.718Z,100517.06
2023-04-02T12:03:00.000Z,100522.04
2023-04-02T12:05:53.006Z,100529.63
2023-04-02T12:09:22.215Z,100530.39
2023-04-02T12:12:18.711Z,100532.27
2023-04-02T12:14:52.893Z,100539.36
2023-04-02T12:17:48.073Z,100538.85
2023-04-02T12:20:41.297Z,100540.08
2023-04-02T12:23:53.997Z,100545.05
2023-04-02T12:26:42.948Z,100546.30
2023-04-02T12:33:00.299Z,100549.87
2023-04-02T12:35:47.126Z,100552.09
2023-04-02T12:39:03.229Z,100552.26
2023-04-02T12:41:58.108Z,100562.36
2023-04-02T12:45:26.100Z,100577.10
2023-04-02T12:48:22.695Z,100581.91
2023-04-02T12:51:27.973Z,100581.49
2023-04-02T12:54:19.150Z,100589.88
2023-04-02T12:57:36.464Z,100585.55
2023-04-02T13:00:28.055Z,100584.85
2023-04-02T13:03:52.335Z,100586.54
2023-04-02T13:07:36.984Z,100586.21
2023-04-02T13:11:04.419Z,100591.71
2023-04-02T13:14:33.173Z,100600.27
2023-04-02T13:18:17.847Z,100597.02
2023-04-02T13:21:45.593Z,100603.09
2023-04-02T13:24:58.623Z,100606.09
2023-04-02T13:28:05.057Z,100603.70
2023-04-02T13:30:58.559Z,100607.79
2023-04-02T13:33:29.353Z,100614.78
2023-04-02T13:36:00.403Z,100613.31
2023-04-02T13:38:30.480Z,100615.17
2023-04-02T13:41:00.969Z,100618.77
2023-04-02T13:43:31.756Z,100623.91
2023-04-02T13:46:08.187Z,100626.61
2023-04-02T13:48:49.153Z,100630.67
2023-04-02T13:51:52.139Z,100632.86
2023-04-02T13:54:56.607Z,100635.84
2023-04-02T13:57:27.495Z,100642.65
2023-04-02T13:59:58.161Z,100642.00
2023-04-02T14:02:32.581Z,100644.99
2023-04-02T14:05:18.035Z,100648.10
2023-04-02T14:08:32.908Z,100641.24
2023-04-02T14:11:03.657Z,100645.61
2023-04-02T14:14:20.237Z,100651.28
2023-04-02T14:17:38.546Z,100648.88
2023-04-02T14:20:26.471Z,100657.06
2023-04-02T14:23:09.286Z,100654.20
2023-04-02T14:25:57.997Z,100660.79
2023-04-02T14:29:14.028Z,100666.27
2023-04-02T14:32:11.343Z,100672.98
2023-04-02T14:35:10.569Z,100678.64
2023-04-02T14:38:26.659Z,100685.36
2023-04-02T14:41:18.644Z,100685.76
2023-04-02T14:44:11.478Z,100686.80
2023-04-02T14:46:47.316Z,100688.91
2023-04-02T14:49:44.330Z,100690.48
2023-04-02T14:52:19.704Z,100691.02
2023-04-02T14:55:06.953Z,100690.70
2023-04-02T14:57:50.518Z,100692.97
2023-04-02T15:00:49.309Z,100693.99
2023-04-02T15:03:38.792Z,100696.92
2023-04-02T15:06:28.203Z,100697.77
2023-04-02T15:09:24.908Z,100705.00
2023-04-02T15:12:14.494Z,100711.70
2023-04-02T15:15:04.281Z,100716.53
2023-04-02T15:17:38.142Z,100716.03
2023-04-02T15:20:18.448Z,100723.97
2023-04-02T15:23:14.736Z,100725.88
2023-04-02T15:26:06.594Z,100727.61
2023-04-02T15:32:35.318Z,100740.20
2023-04-02T15:39:02.693Z,100746.77
2023-04-02T15:41:44.354Z,100746.94
2023-04-02T15:44:20.107Z,100745.19
2023-04-02T15:47:11.465Z,100749.83
2023-04-02T15:50:36.674Z,100748.59
2023-04-02T15:53:51.955Z,100750.47
2023-04-02T15:57:29.499Z,100757.02
2023-04-02T16:00:46.383Z,100763.70
2023-04-02T16:04:04.712Z,100769.58
2023-04-02T16:07:54.907Z,100773.35
2023-04-02T16:10:46.345Z,100775.94
2023-04-02T16:13:58.214Z,100785.08
2023-04-02T16:16:43.847Z,100789.04
2023-04-02T16:19:52.312Z,100791.45
2023-04-02T16:22:33.622Z,100796.98
2023-04-02T16:25:54.112Z,100804.73
2023-04-02T16:29:27.928Z,100804.22
2023-04-02T16:32:39.937Z,100805.96
2023-04-02T16:35:43.959Z,100810.30
2023-04-02T16:39:43.195Z,100814.10
2023-04-02T16:43:11.446Z,100824.64
2023-04-02T16:46:40.404Z,100827.23
2023-04-02T16:50:10.195Z,100834.48
2023-04-02T16:57:01.445Z,100838.47
2023-04-02T17:00:10.345Z,100845.54
2023-04-02T17:03:34.437Z,100848.28
2023-04-02T17:11:04.411Z,100858.98
2023-04-02T17:18:35.222Z,100867.12
2023-04-02T17:21:28.113Z,100880.39
2023-04-02T17:24:27.405Z,100878.99
2023-04-02T17:27:49.306Z,100884.50
2023-04-02T17:30:47.905Z,100887.10
2023-04-02T17:33:35.642Z,100892.45
2023-04-02T17:37:01.611Z,100898.16
2023-04-02T17:39:48.588Z,100901.27
2023-04-02T17:43:07.972Z,100901.13
2023-04-02T17:45:56.222Z,100910.12
2023-04-02T17:49:17.893Z,100916.14
2023-04-02T17:53:20.095Z,100919.96
2023-04-02T17:56:02.738Z,100922.56
2023-04-02T17:59:39.882Z,100925.67
2023-04-02T18:02:45.023Z,100935.49
2023-04-02T18:06:14.454Z,100938.95
2023-04-02T18:09:22.036Z,100945.02
2023-04-02T18:12:24.364Z,100949.14
2023-04-02T18:15:42.185Z,100960.36
2023-04-02T18:18:29.568Z,100964.16
2023-04-02T18:21:56.929Z,100963.30
2023-04-02T18:25:36.020Z,100969.86
2023-04-02T18:29:06.713Z,100974.52
2023-04-02T18:31:54.997Z,100981.05
2023-04-02T18:35:14.110Z,100988.98
2023-04-02T18:38:20.373Z,100991.58
2023-04-02T18:41:33.597Z,100996.40
2023-04-02T18:44:59.025Z,101001.75
2023-04-02T18:48:37.671Z,101009.16
2023-04-02T18:52:20.782Z,101010.36
2023-04-02T18:55:07.373Z,101014.67
2023-04-02T18:57:46.943Z,101016.40
2023-04-02T19:00:43.906Z,101019.51
2023-04-02T19:03:39.289Z,101022.61
2023-04-02T19:06:21.701Z,101026.39
2023-04-02T19:09:03.609Z,101029.66
2023-04-02T19:11:43.972Z,101031.73
2023-04-02T19:14:21.433Z,101031.73
2023-04-02T19:17:28.649Z,101031.90
2023-04-02T19:20:12.460Z,101036.39
2023-04-02T19:23:08.312Z,101036.73
2023-04-02T19:26:07.302Z,101038.63
2023-04-02T19:29:00.290Z,101042.93
2023-04-02T19:32:06.348Z,101042.75
2023-04-02T19:35:24.703Z,101046.54
2023-04-02T19:38:36.773Z,101049.64
2023-04-02T19:42:04.319Z,101047.40
2023-04-02T19:44:49.574Z,101050.33
2023-04-02T19:47:25.991Z,101055.67
2023-04-02T19:50:07.510Z,101054.64
2023-04-02T19:52:44.959Z,101053.61
2023-04-02T19:55:51.886Z,101056.71
2023-04-02T19:58:33.962Z,101061.02
2023-04-02T20:01:16.621Z,101065.15
2023-04-02T20:04:07.890Z,101064.98
2023-04-02T20:06:52.171Z,101069.78
2023-04-02T20:09:25.010Z,101072.70
2023-04-02T20:12:02.570Z,101074.41
2023-04-02T20:14:42.145Z,101075.61
2023-04-02T20:17:51.869Z,101079.39
2023-04-02T20:20:48.102Z,101076.63
2023-04-02T20:23:31.978Z,101079.38
2023-04-02T20:26:10.965Z,101081.61
2023-04-02T20:28:50.509Z,101084.73
2023-04-02T20:31:49.508Z,101089.02
2023-04-02T20:34:25.198Z,101096.08
2023-04-02T20:37:25.389Z,101101.91
2023-04-02T20:40:29.475Z,101105.17
2023-04-02T20:43:05.205Z,101108.42
2023-04-02T20:46:09.457Z,101115.48
2023-04-02T20:48:54.243Z,101116.86
2023-04-02T20:51:37.812Z,101119.45
2023-04-02T20:54:40.143Z,101120.13
2023-04-02T20:57:15.244Z,101117.20
2023-04-02T20:59:53.505Z,101123.40
2023-04-02T21:03:14.858Z,101130.08
2023-04-02T21:06:40.335Z,101135.72
2023-04-02T21:09:53.310Z,101137.25
2023-04-02T21:12:54.598Z,101142.91
2023-04-02T21:15:33.974Z,101142.91
2023-04-02T21:18:21.898Z,101144.78
2023-04-02T21:25:03.363Z,101150.14
2023-04-02T21:29:11.997Z,101158.05
2023-04-02T21:31:55.097Z,101158.38
2023-04-02T21:35:10.550Z,101160.95
2023-04-02T21:37:50.656Z,101165.02
2023-04-02T21:40:32.064Z,101161.73
2023-04-02T21:43:30.326Z,101164.64
2023-04-02T21:46:09.685Z,101169.45
2023-04-02T21:49:29.763Z,101176.02
2023-04-02T21:52:07.528Z,101175.14
2023-04-02T21:55:06.937Z,101175.29
2023-04-02T22:14:27.853Z,101194.52
2023-04-02T22:19:03.060Z,101197.91
2023-04-02T22:23:36.957Z,101201.27
2023-04-02T22:31:52.202Z,101212.66
2023-04-02T22:38:12.037Z,101212.40
2023-04-02T22:40:53.839Z,101219.47
2023-04-02T22:43:28.265Z,101218.55
2023-04-02T22:46:08.897Z,101219.52
2023-04-02T22:48:56.837Z,101220.15
2023-04-02T22:51:49.807Z,101225.09
2023-04-02T23:02:32.291Z,101233.38
2023-04-02T23:05:11.991Z,101239.53
2023-04-02T23:07:48.307Z,101241.59
2023-04-02T23:10:34.222Z,101242.24
2023-04-02T23:13:11.417Z,101239.43
2023-04-02T23:15:48.997Z,101242.48
2023-04-02T23:18:26.092Z,101243.45
2023-04-02T23:21:09.301Z,101243.70
2023-04-02T23:23:56.212Z,101241.58
2023-04-02T23:26:41.241Z,101240.85
2023-04-02T23:29:18.203Z,101240.31
2023-04-02T23:32:10.839Z,101243.17
2023-04-02T23:35:13.780Z,101244.78
2023-04-02T23:37:53.229Z,101246.30
2023-04-02T23:40:47.797Z,101245.59
2023-04-02T23:43:30.742Z,101245.91
2023-04-02T23:46:13.202Z,101246.07
2023-04-02T23:49:10.422Z,101242.80
2023-04-02T23:51:41.448Z,101242.96
2023-04-02T23:54:35.548Z,101247.40
2023-04-02T23:57:12.273Z,101242.89
2023-04-02T23:59:44.405Z,101242.69
